createdAt,value
2022-10-09T00:01:23.653Z,13.53
2022-10-09T00:03:52.536Z,13.57
2022-10-09T00:06:22.267Z,13.59
2022-10-09T00:08:49.201Z,13.59
2022-10-09T00:11:18.403Z,13.59
2022-10-09T00:13:45.222Z,13.58
2022-10-09T00:16:14.168Z,13.56
2022-10-09T00:18:41.172Z,13.51
2022-10-09T00:21:19.481Z,13.45
2022-10-09T00:23:50.389Z,13.45
2022-10-09T00:26:17.720Z,13.42
2022-10-09T00:28:44.197Z,13.41
2022-10-09T00:31:11.985Z,13.39
2022-10-09T00:33:38.936Z,13.37
2022-10-09T00:36:07.119Z,13.36
2022-10-09T00:38:34.466Z,13.34
2022-10-09T00:41:00.840Z,13.34
2022-10-09T00:44:00.632Z,13.32
2022-10-09T00:46:36.424Z,13.30
2022-10-09T00:49:13.493Z,13.26
2022-10-09T00:51:42.019Z,13.25
2022-10-09T00:54:14.085Z,13.20
2022-10-09T00:56:40.607Z,13.19
2022-10-09T00:59:07.198Z,13.18
2022-10-09T01:01:33.910Z,13.12
2022-10-09T01:04:00.309Z,13.09
2022-10-09T01:06:32.063Z,13.06
2022-10-09T01:09:57.113Z,12.98
2022-10-09T01:12:42.041Z,12.74
2022-10-09T01:15:17.823Z,12.50
2022-10-09T01:17:56.090Z,12.37
2022-10-09T01:20:31.585Z,12.47
2022-10-09T01:23:16.843Z,12.42
2022-10-09T01:25:56.701Z,12.38
2022-10-09T01:28:28.953Z,12.32
2022-10-09T01:31:00.029Z,12.28
2022-10-09T01:33:28.837Z,12.18
2022-10-09T01:35:55.694Z,12.11
2022-10-09T01:38:24.191Z,12.08
2022-10-09T01:40:53.379Z,12.19
2022-10-09T01:43:20.491Z,12.28
2022-10-09T01:45:48.956Z,12.44
2022-10-09T01:48:24.933Z,12.52
2022-10-09T01:50:57.774Z,12.65
2022-10-09T01:53:25.479Z,12.78
2022-10-09T01:56:11.317Z,12.89
2022-10-09T01:58:44.186Z,13.01
2022-10-09T02:01:17.945Z,13.05
2022-10-09T02:03:48.302Z,13.11
2022-10-09T02:06:16.685Z,13.14
2022-10-09T02:08:45.375Z,13.17
2022-10-09T02:11:14.783Z,13.21
2022-10-09T02:13:42.090Z,13.26
2022-10-09T02:16:21.535Z,13.22
2022-10-09T02:19:03.920Z,13.26
2022-10-09T02:21:46.338Z,13.28
2022-10-09T02:24:20.024Z,13.29
2022-10-09T02:26:46.804Z,13.31
2022-10-09T02:29:14.700Z,13.31
2022-10-09T02:31:43.043Z,13.29
2022-10-09T02:34:12.885Z,13.25
2022-10-09T02:36:39.903Z,13.24
2022-10-09T02:39:07.068Z,13.27
2022-10-09T02:41:33.815Z,13.21
2022-10-09T02:44:00.440Z,13.11
2022-10-09T02:46:27.293Z,13.10
2022-10-09T02:48:54.015Z,13.10
2022-10-09T02:51:20.503Z,13.12
2022-10-09T02:53:46.852Z,12.98
2022-10-09T02:56:13.729Z,12.90
2022-10-09T02:58:40.563Z,12.96
2022-10-09T03:01:07.054Z,13.06
2022-10-09T03:03:33.763Z,13.04
2022-10-09T03:06:14.221Z,12.93
2022-10-09T03:08:42.976Z,12.98
2022-10-09T03:11:10.152Z,13.04
2022-10-09T03:13:37.618Z,13.05
2022-10-09T03:16:09.397Z,13.08
2022-10-09T03:18:36.563Z,13.14
2022-10-09T03:21:11.487Z,13.16
2022-10-09T03:23:38.230Z,13.20
2022-10-09T03:26:07.598Z,13.18
2022-10-09T03:28:39.104Z,13.15
2022-10-09T03:31:06.649Z,13.14
2022-10-09T03:33:34.888Z,13.12
2022-10-09T03:36:02.058Z,13.12
2022-10-09T03:38:28.567Z,13.13
2022-10-09T03:40:55.010Z,13.12
2022-10-09T03:43:21.484Z,13.08
2022-10-09T03:45:47.881Z,13.05
2022-10-09T03:48:14.548Z,13.03
2022-10-09T03:50:41.529Z,13.01
2022-10-09T03:53:09.732Z,12.96
2022-10-09T03:55:36.281Z,12.91
2022-10-09T03:58:02.804Z,12.88
2022-10-09T04:00:29.711Z,12.84
2022-10-09T04:02:56.264Z,12.80
2022-10-09T04:05:22.728Z,12.78
2022-10-09T04:07:49.374Z,12.77
2022-10-09T04:10:16.111Z,12.76
2022-10-09T04:12:42.694Z,12.73
2022-10-09T04:15:09.699Z,12.72
2022-10-09T04:17:36.123Z,12.71
2022-10-09T04:20:02.860Z,12.68
2022-10-09T04:22:29.296Z,12.65
2022-10-09T04:24:55.738Z,12.63
2022-10-09T04:27:22.097Z,12.61
2022-10-09T04:29:48.490Z,12.60
2022-10-09T04:32:14.944Z,12.57
2022-10-09T04:34:41.303Z,12.56
2022-10-09T04:37:07.804Z,12.54
2022-10-09T04:39:34.172Z,12.53
2022-10-09T04:42:00.533Z,12.52
2022-10-09T04:44:27.015Z,12.50
2022-10-09T04:46:53.430Z,12.48
2022-10-09T04:49:19.863Z,12.45
2022-10-09T04:51:46.194Z,12.43
2022-10-09T04:54:13.372Z,12.40
2022-10-09T04:56:39.818Z,12.37
2022-10-09T04:59:06.226Z,12.31
2022-10-09T05:01:37.845Z,12.30
2022-10-09T05:04:04.796Z,12.30
2022-10-09T05:06:31.175Z,12.29
2022-10-09T05:08:57.605Z,12.27
2022-10-09T05:11:25.748Z,12.27
2022-10-09T05:13:54.728Z,12.26
2022-10-09T05:16:27.226Z,12.25
2022-10-09T05:18:56.144Z,12.22
2022-10-09T05:21:22.809Z,12.20
2022-10-09T05:23:49.296Z,12.17
2022-10-09T05:26:18.395Z,12.16
2022-10-09T05:28:49.124Z,12.15
2022-10-09T05:31:24.568Z,12.12
2022-10-09T05:33:51.636Z,12.12
2022-10-09T05:36:18.352Z,12.06
2022-10-09T05:38:45.562Z,12.03
2022-10-09T05:41:15.124Z,12.02
2022-10-09T05:43:43.351Z,12.00
2022-10-09T05:46:15.329Z,12.00
2022-10-09T05:48:43.634Z,12.00
2022-10-09T05:51:11.859Z,12.01
2022-10-09T05:53:40.141Z,12.01
2022-10-09T05:56:19.127Z,11.99
2022-10-09T05:58:53.525Z,12.01
2022-10-09T06:01:21.808Z,12.01
2022-10-09T06:03:50.716Z,11.97
2022-10-09T06:06:18.531Z,11.96
2022-10-09T06:08:45.366Z,11.97
2022-10-09T06:11:14.507Z,11.98
2022-10-09T06:13:41.884Z,11.99
2022-10-09T06:16:08.733Z,12.00
2022-10-09T06:18:35.129Z,12.01
2022-10-09T06:21:02.870Z,12.02
2022-10-09T06:23:29.964Z,12.00
2022-10-09T06:25:59.294Z,11.99
2022-10-09T06:28:25.911Z,12.00
2022-10-09T06:30:52.324Z,12.00
2022-10-09T06:33:18.863Z,11.94
2022-10-09T06:35:45.334Z,11.88
2022-10-09T06:38:11.835Z,11.88
2022-10-09T06:40:38.542Z,11.91
2022-10-09T06:43:05.428Z,11.92
2022-10-09T06:45:36.615Z,11.92
2022-10-09T06:48:03.086Z,11.82
2022-10-09T06:50:29.631Z,11.82
2022-10-09T06:52:56.579Z,11.83
2022-10-09T06:55:27.849Z,11.87
2022-10-09T06:57:55.042Z,11.96
2022-10-09T07:00:21.635Z,12.00
2022-10-09T07:02:48.379Z,12.00
2022-10-09T07:05:15.418Z,11.99
2022-10-09T07:07:42.457Z,11.99
2022-10-09T07:10:09.825Z,12.04
2022-10-09T07:12:36.978Z,12.09
2022-10-09T07:15:05.637Z,12.10
2022-10-09T07:17:32.483Z,12.10
2022-10-09T07:19:58.811Z,12.12
2022-10-09T07:22:27.096Z,12.18
2022-10-09T07:24:53.746Z,12.25
2022-10-09T07:27:20.176Z,12.30
2022-10-09T07:29:47.553Z,12.32
2022-10-09T07:32:13.928Z,12.35
2022-10-09T07:34:40.283Z,12.29
2022-10-09T07:37:06.776Z,12.33
2022-10-09T07:39:34.821Z,12.39
2022-10-09T07:42:02.099Z,12.42
2022-10-09T07:44:29.767Z,12.47
2022-10-09T07:46:56.092Z,12.55
2022-10-09T07:49:22.507Z,12.53
2022-10-09T07:51:49.195Z,12.46
2022-10-09T07:54:15.817Z,12.38
2022-10-09T07:56:42.330Z,12.42
2022-10-09T07:59:13.057Z,12.48
2022-10-09T08:01:39.667Z,12.50
2022-10-09T08:04:06.121Z,12.61
2022-10-09T08:06:32.763Z,12.60
2022-10-09T08:09:01.049Z,12.61
2022-10-09T08:11:29.099Z,12.64
2022-10-09T08:13:55.674Z,12.67
2022-10-09T08:16:23.899Z,12.72
2022-10-09T08:18:54.442Z,12.83
2022-10-09T08:21:20.970Z,12.85
2022-10-09T08:23:47.408Z,12.89
2022-10-09T08:26:18.867Z,12.89
2022-10-09T08:28:50.796Z,12.89
2022-10-09T08:31:17.645Z,12.91
2022-10-09T08:33:44.486Z,12.99
2022-10-09T08:36:14.332Z,13.09
2022-10-09T08:38:48.667Z,13.18
2022-10-09T08:41:29.121Z,13.26
2022-10-09T08:44:05.982Z,13.36
2022-10-09T08:47:00.339Z,13.47
2022-10-09T08:49:34.489Z,13.55
2022-10-09T08:52:13.915Z,13.65
2022-10-09T08:54:40.301Z,13.75
2022-10-09T08:57:13.863Z,13.82
2022-10-09T08:59:40.680Z,13.96
2022-10-09T09:02:20.619Z,14.03
2022-10-09T09:05:29.067Z,14.19
2022-10-09T09:08:05.356Z,14.36
2022-10-09T09:10:55.050Z,14.43
2022-10-09T09:13:45.426Z,14.50
2022-10-09T09:16:24.225Z,14.64
2022-10-09T09:19:31.553Z,14.70
2022-10-09T09:21:58.804Z,14.76
2022-10-09T09:24:38.253Z,14.79
2022-10-09T09:27:12.860Z,14.88
2022-10-09T09:30:01.725Z,14.82
2022-10-09T09:32:30.353Z,14.93
2022-10-09T09:35:08.188Z,15.02
2022-10-09T09:37:34.736Z,15.21
2022-10-09T09:40:35.559Z,15.32
2022-10-09T09:42:48.418Z,15.32
2022-10-09T09:45:20.592Z,15.40
2022-10-09T09:47:51.785Z,15.59
2022-10-09T09:50:50.148Z,15.65
2022-10-09T09:53:37.631Z,15.87
2022-10-09T09:56:04.682Z,16.22
2022-10-09T09:58:43.507Z,16.61
2022-10-09T10:01:39.180Z,17.33
2022-10-09T10:04:19.841Z,18.44
2022-10-09T10:06:46.295Z,20.36
2022-10-09T10:09:16.037Z,21.94
2022-10-09T10:12:03.847Z,23.01
2022-10-09T10:14:31.570Z,23.95
2022-10-09T10:17:01.131Z,24.94
2022-10-09T10:19:35.222Z,25.91
2022-10-09T10:22:07.794Z,26.40
2022-10-09T10:24:41.510Z,27.08
2022-10-09T10:27:25.549Z,27.56
2022-10-09T10:29:58.113Z,27.73
2022-10-09T10:32:36.034Z,28.83
2022-10-09T10:35:04.220Z,29.65
2022-10-09T10:37:50.075Z,30.41
2022-10-09T10:40:24.576Z,30.18
2022-10-09T10:43:15.350Z,31.19
2022-10-09T10:45:55.820Z,30.22
2022-10-09T10:48:28.594Z,27.63
2022-10-09T10:51:19.768Z,24.88
2022-10-09T10:54:13.041Z,23.69
2022-10-09T10:56:48.913Z,22.80
2022-10-09T10:59:37.668Z,21.90
2022-10-09T11:02:17.630Z,20.97
2022-10-09T11:04:46.964Z,20.22
2022-10-09T11:08:01.902Z,19.51
2022-10-09T11:10:59.310Z,19.18
2022-10-09T11:13:52.057Z,19.92
2022-10-09T11:16:46.440Z,23.33
2022-10-09T11:19:45.406Z,24.67
2022-10-09T11:22:30.975Z,25.66
2022-10-09T11:25:12.683Z,25.18
2022-10-09T11:28:01.087Z,24.30
2022-10-09T11:30:33.459Z,24.18
2022-10-09T11:33:10.769Z,24.87
2022-10-09T11:35:51.952Z,24.85
2022-10-09T11:38:30.444Z,24.88
2022-10-09T11:40:58.351Z,26.85
2022-10-09T11:43:24.775Z,28.64
2022-10-09T11:45:56.269Z,30.42
2022-10-09T11:48:44.700Z,32.04
2022-10-09T11:51:38.366Z,33.23
2022-10-09T11:54:11.448Z,34.00
2022-10-09T11:56:37.798Z,34.71
2022-10-09T11:59:06.887Z,35.32
2022-10-09T12:01:44.439Z,33.92
2022-10-09T12:04:14.500Z,33.72
2022-10-09T12:06:54.388Z,33.79
2022-10-09T12:09:32.652Z,31.42
2022-10-09T12:12:09.031Z,30.16
2022-10-09T12:14:37.763Z,31.66
2022-10-09T12:17:23.704Z,32.79
2022-10-09T12:19:55.351Z,31.24
2022-10-09T12:22:56.425Z,27.75
2022-10-09T12:25:43.360Z,25.42
2022-10-09T12:28:28.556Z,26.37
2022-10-09T12:30:57.657Z,25.41
2022-10-09T12:33:30.357Z,24.68
2022-10-09T12:36:14.033Z,24.16
2022-10-09T12:38:41.751Z,22.80
2022-10-09T12:41:20.831Z,22.90
2022-10-09T12:43:51.025Z,23.82
2022-10-09T12:46:35.878Z,23.98
2022-10-09T12:49:05.372Z,23.28
2022-10-09T12:51:33.571Z,24.16
2022-10-09T12:54:07.572Z,27.08
2022-10-09T12:56:38.317Z,29.80
2022-10-09T12:59:06.688Z,32.19
2022-10-09T13:01:34.292Z,34.48
2022-10-09T13:04:05.895Z,32.69
2022-10-09T13:06:36.155Z,30.40
2022-10-09T13:09:06.028Z,30.12
2022-10-09T13:11:37.970Z,28.78
2022-10-09T13:14:05.076Z,30.15
2022-10-09T13:16:42.714Z,31.76
2022-10-09T13:19:27.742Z,30.36
2022-10-09T13:22:25.290Z,30.99
2022-10-09T13:24:54.121Z,30.46
2022-10-09T13:27:27.377Z,30.31
2022-10-09T13:29:54.413Z,27.98
2022-10-09T13:32:20.905Z,26.84
2022-10-09T13:34:47.397Z,26.86
2022-10-09T13:37:15.448Z,28.14
2022-10-09T13:39:42.207Z,27.30
2022-10-09T13:42:13.870Z,28.34
2022-10-09T13:44:40.240Z,29.31
2022-10-09T13:47:06.590Z,28.24
2022-10-09T13:49:33.052Z,27.92
2022-10-09T13:51:59.534Z,27.77
2022-10-09T13:54:26.133Z,27.12
2022-10-09T13:56:52.656Z,26.25
2022-10-09T13:59:19.020Z,27.09
2022-10-09T14:01:46.049Z,27.52
2022-10-09T14:04:12.755Z,27.45
2022-10-09T14:06:39.226Z,27.08
2022-10-09T14:09:05.617Z,26.24
2022-10-09T14:11:33.174Z,25.46
2022-10-09T14:14:00.539Z,24.54
2022-10-09T14:16:29.611Z,23.94
2022-10-09T14:19:00.253Z,23.29
2022-10-09T14:21:27.170Z,22.83
2022-10-09T14:23:58.910Z,22.53
2022-10-09T14:26:26.396Z,22.17
2022-10-09T14:28:53.923Z,21.98
2022-10-09T14:31:20.584Z,21.69
2022-10-09T14:33:48.484Z,21.54
2022-10-09T14:36:22.191Z,21.30
2022-10-09T14:38:49.253Z,21.22
2022-10-09T14:41:17.886Z,20.80
2022-10-09T14:43:51.785Z,20.48
2022-10-09T14:46:18.241Z,20.30
2022-10-09T14:48:48.444Z,20.19
2022-10-09T14:51:17.890Z,20.07
2022-10-09T14:53:45.071Z,20.03
2022-10-09T14:56:14.653Z,20.12
2022-10-09T14:58:41.733Z,20.14
2022-10-09T15:01:12.681Z,20.09
2022-10-09T15:03:39.189Z,19.85
2022-10-09T15:06:07.445Z,19.69
2022-10-09T15:08:36.067Z,19.54
2022-10-09T15:11:03.067Z,19.46
2022-10-09T15:13:29.977Z,19.43
2022-10-09T15:16:05.037Z,19.37
2022-10-09T15:18:31.467Z,19.33
2022-10-09T15:20:59.560Z,19.34
2022-10-09T15:23:27.024Z,19.28
2022-10-09T15:25:55.693Z,19.26
2022-10-09T15:28:22.589Z,19.23
2022-10-09T15:30:59.060Z,19.22
2022-10-09T15:33:26.074Z,19.17
2022-10-09T15:35:53.397Z,19.10
2022-10-09T15:38:22.608Z,18.97
2022-10-09T15:40:59.227Z,18.88
2022-10-09T15:43:27.876Z,18.80
2022-10-09T15:46:02.495Z,18.63
2022-10-09T15:48:29.180Z,18.53
2022-10-09T15:50:55.628Z,18.49
2022-10-09T15:53:24.716Z,18.49
2022-10-09T15:55:52.922Z,18.46
2022-10-09T15:58:19.947Z,18.42
2022-10-09T16:00:48.581Z,18.38
2022-10-09T16:03:17.208Z,18.31
2022-10-09T16:05:48.362Z,18.23
2022-10-09T16:08:16.380Z,18.13
2022-10-09T16:10:49.308Z,18.06
2022-10-09T16:13:16.295Z,18.01
2022-10-09T16:15:44.732Z,17.95
2022-10-09T16:18:11.293Z,17.90
2022-10-09T16:20:39.249Z,17.86
2022-10-09T16:23:06.491Z,17.84
2022-10-09T16:25:33.331Z,17.81
2022-10-09T16:27:59.979Z,17.77
2022-10-09T16:30:27.453Z,17.73
2022-10-09T16:32:53.961Z,17.69
2022-10-09T16:35:21.630Z,17.61
2022-10-09T16:37:48.180Z,17.53
2022-10-09T16:40:14.624Z,17.43
2022-10-09T16:42:41.063Z,17.35
2022-10-09T16:45:08.091Z,17.26
2022-10-09T16:47:34.640Z,17.18
2022-10-09T16:50:01.059Z,17.11
2022-10-09T16:52:27.431Z,17.04
2022-10-09T16:54:57.076Z,16.98
2022-10-09T16:57:25.949Z,16.94
2022-10-09T16:59:52.439Z,16.89
2022-10-09T17:02:18.839Z,16.83
2022-10-09T17:04:46.029Z,16.80
2022-10-09T17:07:12.856Z,16.75
2022-10-09T17:09:40.431Z,16.71
2022-10-09T17:12:10.352Z,16.68
2022-10-09T17:14:37.800Z,16.63
2022-10-09T17:17:06.275Z,16.57
2022-10-09T17:19:32.910Z,16.53
2022-10-09T17:22:00.673Z,16.48
2022-10-09T17:24:28.348Z,16.47
2022-10-09T17:26:55.676Z,16.45
2022-10-09T17:29:22.565Z,16.43
2022-10-09T17:31:49.073Z,16.40
2022-10-09T17:34:15.901Z,16.37
2022-10-09T17:36:43.992Z,16.34
2022-10-09T17:39:16.673Z,16.31
2022-10-09T17:41:47.378Z,16.27
2022-10-09T17:44:15.229Z,16.22
2022-10-09T17:46:42.174Z,16.16
2022-10-09T17:49:10.088Z,16.12
2022-10-09T17:51:39.492Z,16.07
2022-10-09T17:54:11.977Z,16.02
2022-10-09T17:56:39.260Z,15.98
2022-10-09T17:59:06.371Z,15.92
2022-10-09T18:01:33.622Z,15.87
2022-10-09T18:04:00.170Z,15.82
2022-10-09T18:06:27.319Z,15.78
2022-10-09T18:08:55.688Z,15.73
2022-10-09T18:11:23.660Z,15.71
2022-10-09T18:13:50.803Z,15.68
2022-10-09T18:16:22.383Z,15.65
2022-10-09T18:18:49.001Z,15.63
2022-10-09T18:21:16.904Z,15.60
2022-10-09T18:23:45.415Z,15.59
2022-10-09T18:26:15.180Z,15.57
2022-10-09T18:28:44.730Z,15.56
2022-10-09T18:31:20.119Z,15.54
2022-10-09T18:33:46.788Z,15.52
2022-10-09T18:36:19.791Z,15.48
2022-10-09T18:38:48.654Z,15.45
2022-10-09T18:41:15.727Z,15.42
2022-10-09T18:43:42.055Z,15.40
2022-10-09T18:46:09.054Z,15.37
2022-10-09T18:48:39.482Z,15.35
2022-10-09T18:51:09.006Z,15.35
2022-10-09T18:53:37.835Z,15.31
2022-10-09T18:56:06.708Z,15.29
2022-10-09T18:58:34.618Z,15.27
2022-10-09T19:01:04.287Z,15.24
2022-10-09T19:03:33.183Z,15.23
2022-10-09T19:05:59.747Z,15.22
2022-10-09T19:08:26.224Z,15.22
2022-10-09T19:10:53.097Z,15.21
2022-10-09T19:13:20.588Z,15.20
2022-10-09T19:15:52.101Z,15.16
2022-10-09T19:18:18.679Z,15.14
2022-10-09T19:20:45.191Z,15.13
2022-10-09T19:23:14.462Z,15.10
2022-10-09T19:25:52.660Z,15.06
2022-10-09T19:28:20.564Z,15.07
2022-10-09T19:30:47.379Z,15.05
2022-10-09T19:33:14.419Z,15.01
2022-10-09T19:35:48.328Z,15.00
2022-10-09T19:38:15.131Z,14.99
2022-10-09T19:40:41.630Z,14.98
2022-10-09T19:43:08.279Z,14.93
2022-10-09T19:45:35.138Z,14.92
2022-10-09T19:48:01.705Z,14.92
2022-10-09T19:50:28.382Z,14.92
2022-10-09T19:52:55.306Z,14.89
2022-10-09T19:55:22.305Z,14.88
2022-10-09T19:57:49.297Z,14.88
2022-10-09T20:00:16.154Z,14.84
2022-10-09T20:02:42.675Z,14.83
2022-10-09T20:05:09.229Z,14.84
2022-10-09T20:07:35.628Z,14.82
2022-10-09T20:10:02.504Z,14.81
2022-10-09T20:12:28.968Z,14.79
2022-10-09T20:14:55.380Z,14.78
2022-10-09T20:17:21.895Z,14.76
2022-10-09T20:19:48.261Z,14.76
2022-10-09T20:22:14.960Z,14.75
2022-10-09T20:24:41.321Z,14.74
2022-10-09T20:27:07.767Z,14.72
2022-10-09T20:29:34.265Z,14.64
2022-10-09T20:32:00.626Z,14.62
2022-10-09T20:34:27.648Z,14.65
2022-10-09T20:36:54.491Z,14.64
2022-10-09T20:39:21.378Z,14.60
2022-10-09T20:41:48.209Z,14.59
2022-10-09T20:44:16.191Z,14.58
2022-10-09T20:46:42.954Z,14.58
2022-10-09T20:49:13.941Z,14.58
2022-10-09T20:51:41.490Z,14.60
2022-10-09T20:54:13.653Z,14.58
2022-10-09T20:56:40.198Z,14.59
2022-10-09T20:59:06.644Z,14.60
2022-10-09T21:01:33.219Z,14.58
2022-10-09T21:04:04.650Z,14.56
2022-10-09T21:06:31.590Z,14.58
2022-10-09T21:08:58.718Z,14.56
2022-10-09T21:11:25.565Z,14.58
2022-10-09T21:13:51.910Z,14.56
2022-10-09T21:16:21.499Z,14.53
2022-10-09T21:18:48.448Z,14.54
2022-10-09T21:21:17.428Z,14.52
2022-10-09T21:23:44.797Z,14.51
2022-10-09T21:26:18.435Z,14.50
2022-10-09T21:28:45.356Z,14.46
2022-10-09T21:31:15.879Z,14.45
2022-10-09T21:33:42.513Z,14.48
2022-10-09T21:36:11.085Z,14.49
2022-10-09T21:38:37.803Z,14.51
2022-10-09T21:41:04.540Z,14.49
2022-10-09T21:43:30.967Z,14.51
2022-10-09T21:45:57.338Z,14.50
2022-10-09T21:48:23.759Z,14.49
2022-10-09T21:50:50.245Z,14.48
2022-10-09T21:53:16.685Z,14.47
2022-10-09T21:55:43.087Z,14.46
2022-10-09T21:58:10.341Z,14.45
2022-10-09T22:00:36.899Z,14.42
2022-10-09T22:03:03.401Z,14.40
2022-10-09T22:05:29.877Z,14.38
2022-10-09T22:07:56.513Z,14.33
2022-10-09T22:10:23.147Z,14.31
2022-10-09T22:12:50.242Z,14.29
2022-10-09T22:15:17.221Z,14.28
2022-10-09T22:17:43.648Z,14.25
2022-10-09T22:20:10.314Z,14.24
2022-10-09T22:22:36.772Z,14.22
2022-10-09T22:25:03.753Z,14.20
2022-10-09T22:27:30.356Z,14.19
2022-10-09T22:29:56.830Z,14.17
2022-10-09T22:32:23.367Z,14.15
2022-10-09T22:34:51.129Z,14.13
2022-10-09T22:37:17.599Z,14.11
2022-10-09T22:39:44.027Z,14.08
2022-10-09T22:42:10.454Z,14.07
2022-10-09T22:44:37.259Z,14.05
2022-10-09T22:47:03.756Z,13.97
2022-10-09T22:49:30.171Z,13.96
2022-10-09T22:51:56.604Z,13.91
2022-10-09T22:54:23.066Z,13.91
2022-10-09T22:56:49.483Z,13.93
2022-10-09T22:59:17.991Z,13.92
2022-10-09T23:01:48.409Z,13.94
2022-10-09T23:04:16.745Z,13.95
2022-10-09T23:06:44.606Z,13.96
2022-10-09T23:09:13.487Z,13.96
2022-10-09T23:11:40.244Z,13.95
2022-10-09T23:14:06.647Z,13.91
2022-10-09T23:16:33.619Z,13.86
2022-10-09T23:19:06.134Z,13.85
2022-10-09T23:21:33.958Z,13.80
2022-10-09T23:24:00.317Z,13.74
2022-10-09T23:26:29.393Z,13.67
2022-10-09T23:29:00.639Z,13.71
2022-10-09T23:31:29.194Z,13.76
2022-10-09T23:33:57.000Z,13.81
2022-10-09T23:36:26.279Z,13.81
2022-10-09T23:38:53.349Z,13.83
2022-10-09T23:41:25.111Z,13.81
2022-10-09T23:43:51.855Z,13.82
2022-10-09T23:46:22.128Z,13.82
2022-10-09T23:48:50.980Z,13.82
2022-10-09T23:51:19.546Z,13.79
2022-10-09T23:53:46.236Z,13.78
2022-10-09T23:56:23.066Z,13.74
2022-10-09T23:58:50.035Z,13.73
